Time,TemperatureF,DewpointF,PressureIn,WindDirection,WindDirectionDegrees,WindSpeedMPH,WindSpeedGustMPH,Humidity,HourlyPrecipIn,Conditions,Clouds,dailyrainin,SoftwareType,DateUTC
2015-05-05 00:00:00,44.3,35.1,29.97,SSE,153,0.0,1.0,70,0.00,,,0.00,Wunderground v.1.15,2015-05-05 07:00:00,
2015-05-05 00:06:00,43.9,35.1,29.98,South,169,1.0,1.0,71,0.00,,,0.00,Wunderground v.1.15,2015-05-05 07:06:00,
2015-05-05 00:12:00,43.5,33.6,29.98,WSW,248,0.0,1.0,68,0.00,,,0.00,Wunderground v.1.15,2015-05-05 07:12:00,
2015-05-05 00:18:00,43.3,35.9,29.98,West,277,1.0,3.0,75,0.00,,,0.00,Wunderground v.1.15,2015-05-05 07:18:00,
2015-05-05 00:24:00,42.5,36.1,29.98,WNW,283,1.0,1.0,78,0.00,,,0.00,Wunderground v.1.15,2015-05-05 07:24:00,
2015-05-05 00:29:00,41.9,36.2,29.98,WNW,283,0.0,1.0,80,0.00,,,0.00,Wunderground v.1.15,2015-05-05 07:29:00,
2015-05-05 00:35:00,41.7,36.6,29.98,WNW,283,0.0,2.0,82,0.00,,,0.00,Wunderground v.1.15,2015-05-05 07:35:00,
2015-05-05 00:41:00,41.9,36.8,29.98,WNW,283,0.0,2.0,82,0.00,,,0.00,Wunderground v.1.15,2015-05-05 07:41:00,
2015-05-05 00:47:00,41.3,36.8,29.98,SSW,205,0.0,2.0,84,0.00,,,0.00,Wunderground v.1.15,2015-05-05 07:47:00,
2015-05-05 00:53:00,41.1,36.6,29.98,SSE,159,0.0,2.0,84,0.00,,,0.00,Wunderground v.1.15,2015-05-05 07:53:00,
2015-05-05 00:59:00,41.4,36.3,29.98,SSE,159,0.0,2.0,82,0.00,,,0.00,Wunderground v.1.15,2015-05-05 07:59:00,
2015-05-05 01:05:00,41.5,36.4,29.98,SSE,159,0.0,0.0,82,0.00,,,0.00,Wunderground v.1.15,2015-05-05 08:05:00,
2015-05-05 01:10:00,41.1,36.0,29.98,SSE,159,0.0,0.0,82,0.00,,,0.00,Wunderground v.1.15,2015-05-05 08:10:00,
2015-05-05 01:16:00,40.6,36.1,29.98,SSE,159,0.0,0.0,84,0.00,,,0.00,Wunderground v.1.15,2015-05-05 08:16:00,
2015-05-05 01:22:00,40.8,35.7,29.98,East,82,0.0,0.0,82,0.00,,,0.00,Wunderground v.1.15,2015-05-05 08:22:00,
2015-05-05 01:28:00,40.9,35.2,29.98,East,92,0.0,0.0,80,0.00,,,0.00,Wunderground v.1.15,2015-05-05 08:28:00,
2015-05-05 01:34:00,40.2,34.8,29.98,East,92,0.0,4.0,81,0.00,,,0.00,Wunderground v.1.15,2015-05-05 08:34:00,
2015-05-05 01:39:00,39.8,35.1,29.99,East,92,0.0,4.0,83,0.00,,,0.00,Wunderground v.1.15,2015-05-05 08:39:00,
2015-05-05 01:45:00,39.6,34.9,29.98,East,92,0.0,4.0,83,0.00,,,0.00,Wunderground v.1.15,2015-05-05 08:45:00,
2015-05-05 01:51:00,39.8,35.7,29.99,NW,320,0.0,4.0,85,0.00,,,0.00,Wunderground v.1.15,2015-05-05 08:51:00,
2015-05-05 01:57:00,40.2,35.4,29.99,NW,320,0.0,4.0,83,0.00,,,0.00,Wunderground v.1.15,2015-05-05 08:57:00,
2015-05-05 02:02:00,40.3,35.5,29.99,NW,321,0.0,0.0,83,0.00,,,0.00,Wunderground v.1.15,2015-05-05 09:02:00,
2015-05-05 02:08:00,39.9,35.2,29.99,NW,320,0.0,0.0,83,0.00,,,0.00,Wunderground v.1.15,2015-05-05 09:08:00,
2015-05-05 02:13:00,40.0,34.9,29.99,East,89,0.0,0.0,82,0.00,,,0.00,Wunderground v.1.15,2015-05-05 09:13:00,
2015-05-05 02:19:00,39.9,34.5,29.99,East,94,0.0,0.0,81,0.00,,,0.00,Wunderground v.1.15,2015-05-05 09:19:00,
2015-05-05 02:25:00,39.1,33.5,29.99,East,89,0.0,0.0,80,0.00,,,0.00,Wunderground v.1.15,2015-05-05 09:25:00,
2015-05-05 02:31:00,38.8,33.5,29.99,East,89,0.0,0.0,81,0.00,,,0.00,Wunderground v.1.15,2015-05-05 09:31:00,
2015-05-05 02:37:00,38.6,33.6,29.99,East,88,0.0,0.0,82,0.00,,,0.00,Wunderground v.1.15,2015-05-05 09:37:00,
2015-05-05 02:43:00,38.5,33.8,29.98,East,88,0.0,0.0,83,0.00,,,0.00,Wunderground v.1.15,2015-05-05 09:43:00,
2015-05-05 02:48:00,38.4,34.0,29.98,East,89,0.0,0.0,84,0.00,,,0.00,Wunderground v.1.15,2015-05-05 09:48:00,
2015-05-05 02:54:00,38.5,33.8,29.99,East,89,0.0,0.0,83,0.00,,,0.00,Wunderground v.1.15,2015-05-05 09:54:00,
2015-05-05 03:00:00,38.2,33.8,29.99,NE,37,0.0,0.0,84,0.00,,,0.00,Wunderground v.1.15,2015-05-05 10:00:00,
2015-05-05 03:06:00,38.0,33.9,29.99,NNW,345,1.0,2.0,85,0.00,,,0.00,Wunderground v.1.15,2015-05-05 10:06:00,
2015-05-05 03:12:00,37.5,32.8,29.99,NNW,328,1.0,2.0,83,0.00,,,0.00,Wunderground v.1.15,2015-05-05 10:12:00,
2015-05-05 03:18:00,37.2,32.8,29.99,NW,326,1.0,2.0,84,0.00,,,0.00,Wunderground v.1.15,2015-05-05 10:18:00,
2015-05-05 03:24:00,36.8,32.7,29.99,SSW,207,1.0,2.0,85,0.00,,,0.00,Wunderground v.1.15,2015-05-05 10:24:00,
2015-05-05 03:30:00,35.7,32.2,29.99,SSW,204,1.0,1.0,87,0.00,,,0.00,Wunderground v.1.15,2015-05-05 10:30:00,
2015-05-05 03:36:00,35.3,32.4,29.99,SSW,211,1.0,2.0,89,0.00,,,0.00,Wunderground v.1.15,2015-05-05 10:36:00,
2015-05-05 03:42:00,35.5,32.9,29.99,SSW,211,1.0,2.0,90,0.00,,,0.00,Wunderground v.1.15,2015-05-05 10:42:00,
2015-05-05 03:48:00,35.5,33.1,29.99,SW,226,1.0,2.0,91,0.00,,,0.00,Wunderground v.1.15,2015-05-05 10:48:00,
2015-05-05 03:54:00,35.2,32.8,30.00,SW,226,0.0,1.0,91,0.00,,,0.00,Wunderground v.1.15,2015-05-05 10:54:00,
2015-05-05 04:00:00,35.0,32.6,30.00,SE,127,1.0,1.0,91,0.00,,,0.00,Wunderground v.1.15,2015-05-05 11:00:00,
2015-05-05 04:06:00,34.6,32.2,30.00,SE,127,1.0,1.0,91,0.00,,,0.00,Wunderground v.1.15,2015-05-05 11:06:00,
2015-05-05 04:12:00,34.1,31.7,30.00,SE,127,0.0,0.0,91,0.00,,,0.00,Wunderground v.1.15,2015-05-05 11:12:00,
2015-05-05 04:18:00,34.1,32.0,30.00,SE,127,0.0,0.0,92,0.00,,,0.00,Wunderground v.1.15,2015-05-05 11:18:00,
2015-05-05 04:24:00,34.6,32.8,30.00,SE,127,0.0,0.0,93,0.00,,,0.00,Wunderground v.1.15,2015-05-05 11:24:00,
2015-05-05 04:30:00,34.7,32.9,30.00,SE,127,0.0,0.0,93,0.00,,,0.00,Wunderground v.1.15,2015-05-05 11:30:00,
2015-05-05 04:35:00,34.5,32.7,30.00,SE,127,0.0,3.0,93,0.00,,,0.00,Wunderground v.1.15,2015-05-05 11:35:00,
2015-05-05 04:40:00,34.4,32.6,30.00,SE,127,0.0,3.0,93,0.00,,,0.00,Wunderground v.1.15,2015-05-05 11:40:00,
2015-05-05 04:46:00,34.0,31.9,30.00,SE,127,0.0,3.0,92,0.00,,,0.00,Wunderground v.1.15,2015-05-05 11:46:00,
2015-05-05 04:52:00,33.9,32.1,30.00,SE,127,0.0,3.0,93,0.00,,,0.00,Wunderground v.1.15,2015-05-05 11:52:00,
2015-05-05 04:58:00,34.0,32.2,30.00,SE,127,0.0,3.0,93,0.00,,,0.00,Wunderground v.1.15,2015-05-05 11:58:00,
2015-05-05 05:04:00,34.0,32.5,30.01,SE,127,0.0,0.0,94,0.00,,,0.00,Wunderground v.1.15,2015-05-05 12:04:00,
2015-05-05 05:09:00,34.0,32.5,30.01,SE,127,0.0,0.0,94,0.00,,,0.00,Wunderground v.1.15,2015-05-05 12:09:00,
2015-05-05 05:15:00,34.0,32.5,30.01,SE,127,0.0,0.0,94,0.00,,,0.00,Wunderground v.1.15,2015-05-05 12:15:00,
2015-05-05 05:21:00,33.9,32.4,30.01,SE,127,0.0,0.0,94,0.00,,,0.00,Wunderground v.1.15,2015-05-05 12:21:00,
2015-05-05 05:27:00,33.9,32.1,30.01,SE,127,0.0,0.0,93,0.00,,,0.00,Wunderground v.1.15,2015-05-05 12:27:00,
2015-05-05 05:33:00,33.5,31.7,30.02,SE,127,0.0,1.0,93,0.00,,,0.00,Wunderground v.1.15,2015-05-05 12:33:00,
2015-05-05 05:39:00,33.4,31.6,30.01,NW,325,0.0,2.0,93,0.00,,,0.00,Wunderground v.1.15,2015-05-05 12:39:00,
2015-05-05 05:45:00,33.4,31.6,30.02,NW,325,0.0,1.0,93,0.00,,,0.00,Wunderground v.1.15,2015-05-05 12:45:00,
2015-05-05 05:50:00,33.6,31.8,30.02,NW,325,0.0,1.0,93,0.00,,,0.00,Wunderground v.1.15,2015-05-05 12:50:00,
2015-05-05 05:55:00,33.4,31.3,30.02,NW,325,0.0,1.0,92,0.00,,,0.00,Wunderground v.1.15,2015-05-05 12:55:00,
2015-05-05 06:00:00,33.2,30.9,30.02,NW,325,0.0,0.0,91,0.00,,,0.00,Wunderground v.1.15,2015-05-05 13:00:00,
2015-05-05 06:06:00,32.6,30.3,30.02,NW,325,0.0,0.0,91,0.00,,,0.00,Wunderground v.1.15,2015-05-05 13:06:00,
2015-05-05 06:12:00,32.1,30.0,30.02,NW,325,0.0,0.0,92,0.00,,,0.00,Wunderground v.1.15,2015-05-05 13:12:00,
2015-05-05 06:18:00,31.8,30.0,30.02,East,85,0.0,1.0,93,0.00,,,0.00,Wunderground v.1.15,2015-05-05 13:18:00,
2015-05-05 06:24:00,32.0,30.2,30.03,East,85,0.0,0.0,93,0.00,,,0.00,Wunderground v.1.15,2015-05-05 13:24:00,
2015-05-05 06:29:00,32.2,30.4,30.03,East,85,0.0,0.0,93,0.00,,,0.00,Wunderground v.1.15,2015-05-05 13:29:00,
2015-05-05 06:35:00,32.6,31.1,30.03,East,85,0.0,1.0,94,0.00,,,0.00,Wunderground v.1.15,2015-05-05 13:35:00,
2015-05-05 06:41:00,33.2,31.7,30.03,WNW,300,0.0,1.0,94,0.00,,,0.00,Wunderground v.1.15,2015-05-05 13:41:00,
2015-05-05 06:47:00,33.0,31.2,30.04,WNW,300,0.0,1.0,93,0.00,,,0.00,Wunderground v.1.15,2015-05-05 13:47:00,
2015-05-05 06:53:00,33.1,31.3,30.04,WNW,300,0.0,0.0,93,0.00,,,0.00,Wunderground v.1.15,2015-05-05 13:53:00,
2015-05-05 06:58:00,33.6,32.1,30.04,WNW,300,0.0,0.0,94,0.00,,,0.00,Wunderground v.1.15,2015-05-05 13:58:00,
2015-05-05 07:04:00,34.0,32.5,30.04,WNW,300,0.0,0.0,94,0.00,,,0.00,Wunderground v.1.15,2015-05-05 14:04:00,
2015-05-05 07:10:00,34.9,33.3,30.04,WNW,300,0.0,0.0,94,0.00,,,0.00,Wunderground v.1.15,2015-05-05 14:10:00,
2015-05-05 07:16:00,35.6,34.0,30.04,WNW,300,0.0,1.0,94,0.00,,,0.00,Wunderground v.1.15,2015-05-05 14:16:00,
2015-05-05 07:22:00,36.4,34.6,30.05,WNW,300,0.0,0.0,93,0.00,,,0.00,Wunderground v.1.15,2015-05-05 14:22:00,
2015-05-05 07:28:00,37.5,35.7,30.05,WNW,298,0.0,0.0,93,0.00,,,0.00,Wunderground v.1.15,2015-05-05 14:28:00,
2015-05-05 07:34:00,38.7,36.9,30.05,WNW,298,0.0,1.0,93,0.00,,,0.00,Wunderground v.1.15,2015-05-05 14:34:00,
2015-05-05 07:39:00,40.0,37.9,30.05,WNW,298,0.0,1.0,92,0.00,,,0.00,Wunderground v.1.15,2015-05-05 14:39:00,
2015-05-05 07:45:00,41.6,39.2,30.05,WNW,298,0.0,1.0,91,0.00,,,0.00,Wunderground v.1.15,2015-05-05 14:45:00,
2015-05-05 07:51:00,42.3,38.1,30.05,ESE,123,0.0,1.0,85,0.00,,,0.00,Wunderground v.1.15,2015-05-05 14:51:00,
2015-05-05 07:57:00,41.9,38.0,30.04,SE,134,1.0,1.0,86,0.00,,,0.00,Wunderground v.1.15,2015-05-05 14:57:00,
2015-05-05 08:03:00,42.2,38.3,30.05,ESE,113,1.0,1.0,86,0.00,,,0.00,Wunderground v.1.15,2015-05-05 15:03:00,
2015-05-05 08:09:00,42.7,38.8,30.05,SW,217,1.0,1.0,86,0.00,,,0.00,Wunderground v.1.15,2015-05-05 15:09:00,
2015-05-05 08:16:00,43.0,38.5,30.05,SW,225,1.0,2.0,84,0.00,,,0.00,Wunderground v.1.15,2015-05-05 15:16:00,
2015-05-05 08:22:00,43.3,38.5,30.04,SW,235,2.0,2.0,83,0.00,,,0.00,Wunderground v.1.15,2015-05-05 15:22:00,
2015-05-05 08:28:00,43.9,38.8,30.04,WSW,240,2.0,2.0,82,0.00,,,0.00,Wunderground v.1.15,2015-05-05 15:28:00,
2015-05-05 08:34:00,44.2,39.1,30.04,SSE,158,2.0,4.0,82,0.00,,,0.00,Wunderground v.1.15,2015-05-05 15:34:00,
2015-05-05 08:40:00,45.1,39.6,30.04,SSW,205,2.0,2.0,81,0.00,,,0.00,Wunderground v.1.15,2015-05-05 15:40:00,
2015-05-05 08:46:00,45.9,39.8,30.04,SSE,152,2.0,2.0,79,0.00,,,0.00,Wunderground v.1.15,2015-05-05 15:46:00,
2015-05-05 08:52:00,46.7,39.5,30.04,SSW,199,2.0,2.0,76,0.00,,,0.00,Wunderground v.1.15,2015-05-05 15:52:00,
2015-05-05 08:58:00,47.3,39.4,30.04,SW,217,2.0,2.0,74,0.00,,,0.00,Wunderground v.1.15,2015-05-05 15:58:00,
2015-05-05 09:04:00,48.2,40.6,30.04,ESE,121,1.0,1.0,75,0.00,,,0.00,Wunderground v.1.15,2015-05-05 16:04:00,
2015-05-05 09:10:00,49.4,40.0,30.04,West,274,0.0,0.0,70,0.00,,,0.00,Wunderground v.1.15,2015-05-05 16:10:00,
2015-05-05 09:16:00,49.8,40.0,30.04,SW,228,1.0,2.0,69,0.00,,,0.00,Wunderground v.1.15,2015-05-05 16:16:00,
2015-05-05 09:22:00,50.8,41.4,30.03,SSW,198,1.0,1.0,70,0.00,,,0.00,Wunderground v.1.15,2015-05-05 16:22:00,
2015-05-05 09:28:00,51.6,41.8,30.03,West,262,0.0,1.0,69,0.00,,,0.00,Wunderground v.1.15,2015-05-05 16:28:00,
2015-05-05 09:34:00,52.4,42.9,30.03,SE,141,1.0,4.0,70,0.00,,,0.00,Wunderground v.1.15,2015-05-05 16:34:00,
2015-05-05 09:39:00,53.1,41.6,30.03,SW,226,1.0,4.0,65,0.00,,,0.00,Wunderground v.1.15,2015-05-05 16:39:00,
2015-05-05 09:44:00,53.3,42.2,30.03,SSW,195,1.0,4.0,66,0.00,,,0.00,Wunderground v.1.15,2015-05-05 16:44:00,
2015-05-05 09:50:00,54.3,41.6,30.03,SW,216,0.0,4.0,62,0.00,,,0.00,Wunderground v.1.15,2015-05-05 16:50:00,
2015-05-05 09:56:00,54.9,44.5,30.03,West,269,1.0,4.0,68,0.00,,,0.00,Wunderground v.1.15,2015-05-05 16:56:00,
2015-05-05 10:02:00,54.7,41.5,30.02,North,9,1.0,1.0,61,0.00,,,0.00,Wunderground v.1.15,2015-05-05 17:02:00,
2015-05-05 10:08:00,56.1,43.7,30.02,SW,231,0.0,1.0,63,0.00,,,0.00,Wunderground v.1.15,2015-05-05 17:08:00,
2015-05-05 10:13:00,56.5,44.0,30.02,SSW,200,0.0,3.0,63,0.00,,,0.00,Wunderground v.1.15,2015-05-05 17:13:00,
2015-05-05 10:18:00,56.5,42.3,30.02,South,190,1.0,4.0,59,0.00,,,0.00,Wunderground v.1.15,2015-05-05 17:18:00,
2015-05-05 10:24:00,56.9,43.2,30.02,ESE,114,1.0,2.0,60,0.00,,,0.00,Wunderground v.1.15,2015-05-05 17:24:00,
2015-05-05 10:30:00,57.3,42.2,30.02,ESE,106,1.0,2.0,57,0.00,,,0.00,Wunderground v.1.15,2015-05-05 17:30:00,
2015-05-05 10:36:00,57.9,45.0,30.02,SE,129,1.0,3.0,62,0.00,,,0.00,Wunderground v.1.15,2015-05-05 17:36:00,
2015-05-05 10:42:00,58.6,41.5,30.02,West,259,2.0,2.0,53,0.00,,,0.00,Wunderground v.1.15,2015-05-05 17:42:00,
2015-05-05 10:48:00,58.9,41.3,30.02,South,183,1.0,2.0,52,0.00,,,0.00,Wunderground v.1.15,2015-05-05 17:48:00,
2015-05-05 10:53:00,59.7,42.5,30.02,South,183,1.0,2.0,53,0.00,,,0.00,Wunderground v.1.15,2015-05-05 17:53:00,
2015-05-05 10:58:00,60.3,42.1,30.02,SW,214,1.0,2.0,51,0.00,,,0.00,Wunderground v.1.15,2015-05-05 17:58:00,
2015-05-05 11:03:00,61.0,37.7,30.02,ESE,105,1.0,3.0,42,0.00,,,0.00,Wunderground v.1.15,2015-05-05 18:03:00,
2015-05-05 11:09:00,61.3,37.4,30.01,North,356,1.0,3.0,41,0.00,,,0.00,Wunderground v.1.15,2015-05-05 18:09:00,
2015-05-05 11:15:00,61.2,36.7,30.01,SSE,159,2.0,4.0,40,0.00,,,0.00,Wunderground v.1.15,2015-05-05 18:15:00,
2015-05-05 11:21:00,61.4,41.5,30.01,NW,309,2.0,2.0,48,0.00,,,0.00,Wunderground v.1.15,2015-05-05 18:21:00,
2015-05-05 11:27:00,61.9,42.5,30.01,WSW,240,1.0,2.0,49,0.00,,,0.00,Wunderground v.1.15,2015-05-05 18:27:00,
2015-05-05 11:32:00,61.8,40.8,30.01,NNW,345,1.0,4.0,46,0.00,,,0.00,Wunderground v.1.15,2015-05-05 18:32:00,
2015-05-05 11:38:00,61.9,40.9,30.00,East,94,2.0,4.0,46,0.00,,,0.00,Wunderground v.1.15,2015-05-05 18:38:00,
2015-05-05 11:44:00,62.0,40.4,30.00,SE,135,2.0,4.0,45,0.00,,,0.00,Wunderground v.1.15,2015-05-05 18:44:00,
2015-05-05 11:50:00,63.1,37.7,30.00,ESE,113,2.0,5.0,39,0.00,,,0.00,Wunderground v.1.15,2015-05-05 18:50:00,
2015-05-05 11:56:00,63.5,33.9,30.00,SW,224,2.0,5.0,33,0.00,,,0.00,Wunderground v.1.15,2015-05-05 18:56:00,
2015-05-05 12:02:00,63.7,36.9,30.00,SE,133,2.0,2.0,37,0.00,,,0.00,Wunderground v.1.15,2015-05-05 19:02:00,
2015-05-05 12:07:00,64.0,37.9,30.00,West,278,1.0,3.0,38,0.00,,,0.00,Wunderground v.1.15,2015-05-05 19:07:00,
2015-05-05 12:13:00,64.6,38.4,30.00,WNW,295,1.0,1.0,38,0.00,,,0.00,Wunderground v.1.15,2015-05-05 19:13:00,
2015-05-05 12:19:00,65.1,39.5,29.99,NE,53,1.0,4.0,39,0.00,,,0.00,Wunderground v.1.15,2015-05-05 19:19:00,
2015-05-05 12:25:00,65.4,34.8,29.99,ESE,108,2.0,3.0,32,0.00,,,0.00,Wunderground v.1.15,2015-05-05 19:25:00,
2015-05-05 12:31:00,65.2,36.8,29.99,ESE,115,2.0,5.0,35,0.00,,,0.00,Wunderground v.1.15,2015-05-05 19:31:00,
2015-05-05 12:37:00,65.0,34.4,29.98,WSW,237,2.0,5.0,32,0.00,,,0.00,Wunderground v.1.15,2015-05-05 19:37:00,
2015-05-05 12:43:00,65.1,42.0,29.98,SSW,207,2.0,5.0,43,0.00,,,0.00,Wunderground v.1.15,2015-05-05 19:43:00,
2015-05-05 12:49:00,65.9,39.6,29.98,South,177,1.0,5.0,38,0.00,,,0.00,Wunderground v.1.15,2015-05-05 19:49:00,
2015-05-05 12:55:00,66.3,33.1,29.98,ENE,78,1.0,5.0,29,0.00,,,0.00,Wunderground v.1.15,2015-05-05 19:55:00,
2015-05-05 13:00:00,66.6,33.3,29.97,NNE,25,2.0,4.0,29,0.00,,,0.00,Wunderground v.1.15,2015-05-05 20:00:00,
2015-05-05 13:06:00,66.4,39.3,29.97,NW,315,2.0,4.0,37,0.00,,,0.00,Wunderground v.1.15,2015-05-05 20:06:00,
2015-05-05 13:12:00,67.6,33.3,29.97,North,360,1.0,5.0,28,0.00,,,0.00,Wunderground v.1.15,2015-05-05 20:12:00,
2015-05-05 13:17:00,67.8,35.2,29.97,East,99,2.0,5.0,30,0.00,,,0.00,Wunderground v.1.15,2015-05-05 20:17:00,
2015-05-05 13:23:00,67.6,39.0,29.97,East,96,3.0,6.0,35,0.00,,,0.00,Wunderground v.1.15,2015-05-05 20:23:00,
2015-05-05 13:29:00,67.4,38.0,29.97,NNW,344,3.0,6.0,34,0.00,,,0.00,Wunderground v.1.15,2015-05-05 20:29:00,
2015-05-05 13:35:00,67.6,31.5,29.96,NNE,13,3.0,7.0,26,0.00,,,0.00,Wunderground v.1.15,2015-05-05 20:35:00,
2015-05-05 13:41:00,68.2,38.0,29.96,WSW,250,3.0,7.0,33,0.00,,,0.00,Wunderground v.1.15,2015-05-05 20:41:00,
2015-05-05 13:47:00,67.5,31.4,29.96,NW,326,2.0,7.0,26,0.00,,,0.00,Wunderground v.1.15,2015-05-05 20:47:00,
2015-05-05 13:52:00,67.8,39.1,29.96,WNW,282,2.0,7.0,35,0.00,,,0.00,Wunderground v.1.15,2015-05-05 20:52:00,
2015-05-05 13:57:00,67.6,37.5,29.95,WNW,293,3.0,7.0,33,0.00,,,0.00,Wunderground v.1.15,2015-05-05 20:57:00,
2015-05-05 14:03:00,67.5,36.6,29.95,SW,225,4.0,4.0,32,0.00,,,0.00,Wunderground v.1.15,2015-05-05 21:03:00,
2015-05-05 14:09:00,67.4,32.2,29.95,WNW,295,2.0,4.0,27,0.00,,,0.00,Wunderground v.1.15,2015-05-05 21:09:00,
2015-05-05 14:15:00,68.4,36.6,29.95,SSW,195,2.0,4.0,31,0.00,,,0.00,Wunderground v.1.15,2015-05-05 21:15:00,
2015-05-05 14:21:00,68.5,33.2,29.95,North,352,2.0,4.0,27,0.00,,,0.00,Wunderground v.1.15,2015-05-05 21:21:00,
2015-05-05 14:27:00,69.6,29.0,29.94,NW,322,2.0,4.0,22,0.00,,,0.00,Wunderground v.1.15,2015-05-05 21:27:00,
2015-05-05 14:33:00,70.2,33.7,29.94,NW,312,2.0,7.0,26,0.00,,,0.00,Wunderground v.1.15,2015-05-05 21:33:00,
2015-05-05 14:39:00,69.5,38.3,29.94,NNW,329,2.0,7.0,32,0.00,,,0.00,Wunderground v.1.15,2015-05-05 21:39:00,
2015-05-05 14:45:00,69.8,31.4,29.94,North,360,4.0,9.0,24,0.00,,,0.00,Wunderground v.1.15,2015-05-05 21:45:00,
2015-05-05 14:51:00,70.2,33.7,29.94,North,349,7.0,11.0,26,0.00,,,0.00,Wunderground v.1.15,2015-05-05 21:51:00,
2015-05-05 14:57:00,69.8,30.3,29.94,NW,312,7.0,11.0,23,0.00,,,0.00,Wunderground v.1.15,2015-05-05 21:57:00,
2015-05-05 15:03:00,69.4,32.0,29.94,NNW,345,6.0,11.0,25,0.00,,,0.00,Wunderground v.1.15,2015-05-05 22:03:00,
2015-05-05 15:09:00,69.5,33.1,29.94,NNW,332,7.0,11.0,26,0.00,,,0.00,Wunderground v.1.15,2015-05-05 22:09:00,
2015-05-05 15:14:00,70.4,33.9,29.94,NNE,20,5.0,7.0,26,0.00,,,0.00,Wunderground v.1.15,2015-05-05 22:14:00,